Time;durP1;ratioP1;P1;durP2;ratioP2;P2;SDS_P1;SDS_P2;PMS_P1;PMS_P2;Temp;Humidity;BMP_temperature;BMP_pressure;BME280_temperature;BME280_humidity;BME280_pressure;Samples;Min_cycle;Max_cycle;Signal;HPM_P1;HPM_P2
2023/01/11 00:00:18;;;;;;;5.97;5.20;;;9.20;99.90;;;;;;5094577;28;20569;-61
2023/01/11 00:02:44;;;;;;;6.25;5.30;;;9.10;99.90;;;;;;5094408;28;20052;-61
2023/01/11 00:05:11;;;;;;;6.10;5.18;;;9.10;99.90;;;;;;5094047;28;20040;-62
2023/01/11 00:07:38;;;;;;;6.68;4.80;;;9.20;99.90;;;;;;5093553;28;20111;-61
2023/01/11 00:10:04;;;;;;;8.10;5.50;;;9.00;99.90;;;;;;5093821;28;20509;-61
2023/01/11 00:12:30;;;;;;;6.30;5.28;;;9.20;99.90;;;;;;5094250;28;20109;-61
2023/01/11 00:14:56;;;;;;;6.47;5.22;;;9.00;99.90;;;;;;5094104;28;20131;-61
2023/01/11 00:17:22;;;;;;;7.15;5.22;;;9.30;99.90;;;;;;5093815;28;20522;-61
2023/01/11 00:19:47;;;;;;;5.70;5.18;;;9.00;99.90;;;;;;5093697;28;20040;-61
2023/01/11 00:22:13;;;;;;;5.45;4.78;;;9.30;99.90;;;;;;5093603;28;20127;-61
2023/01/11 00:24:39;;;;;;;5.22;4.72;;;9.30;99.90;;;;;;5093082;28;20474;-61
2023/01/11 00:27:04;;;;;;;6.55;4.88;;;9.20;99.90;;;;;;5093502;28;20032;-60
2023/01/11 00:29:30;;;;;;;5.65;4.82;;;9.40;99.90;;;;;;5093585;28;20130;-61
2023/01/11 00:31:56;;;;;;;5.30;4.70;;;9.40;99.90;;;;;;5093550;28;20093;-61
2023/01/11 00:34:22;;;;;;;5.75;4.95;;;9.40;99.90;;;;;;5093412;28;20389;-60
2023/01/11 00:36:47;;;;;;;5.10;4.70;;;9.30;99.90;;;;;;5093430;28;20044;-61
2023/01/11 00:39:13;;;;;;;5.90;4.82;;;9.20;99.90;;;;;;5093225;28;20036;-61
2023/01/11 00:49:58;;;;;;;5.03;4.53;;;9.50;99.90;;;;;;5092984;28;20044;-61
2023/01/11 00:52:23;;;;;;;5.35;4.85;;;9.60;99.90;;;;;;5092950;28;20089;-60
2023/01/11 00:54:49;;;;;;;6.03;4.40;;;9.40;99.90;;;;;;5093111;28;20039;-60
2023/01/11 00:57:14;;;;;;;5.95;4.68;;;9.60;99.90;;;;;;5093035;28;20044;-60
2023/01/11 00:59:40;;;;;;;4.78;4.38;;;9.40;99.90;;;;;;5092857;28;20093;-61
2023/01/11 01:02:07;;;;;;;5.28;4.47;;;9.70;99.90;;;;;;5092867;28;20113;-60
2023/01/11 01:04:33;;;;;;;5.13;4.25;;;9.60;99.90;;;;;;5092733;28;20054;-60
2023/01/11 01:06:59;;;;;;;5.07;4.57;;;9.40;99.90;;;;;;5092794;28;20087;-60
2023/01/11 01:09:25;;;;;;;5.95;4.40;;;9.40;99.90;;;;;;5092506;28;20075;-61
2023/01/11 01:11:51;;;;;;;5.10;4.05;;;9.40;99.90;;;;;;5092484;28;20044;-60
2023/01/11 01:14:27;;;;;;;4.18;3.78;;;9.50;99.90;;;;;;5092553;28;20038;-60
2023/01/11 01:16:54;;;;;;;4.78;3.80;;;9.40;99.90;;;;;;5092563;28;20032;-60
2023/01/11 01:19:21;;;;;;;6.47;4.07;;;9.50;99.90;;;;;;5091507;28;20047;-60
2023/01/11 01:21:47;;;;;;;3.53;3.22;;;9.80;99.90;;;;;;5092492;28;20051;-60
2023/01/11 01:24:13;;;;;;;3.60;3.30;;;9.80;99.90;;;;;;5092630;28;20070;-61
2023/01/11 01:26:39;;;;;;;3.88;3.03;;;9.70;99.90;;;;;;5092319;28;20470;-60
2023/01/11 01:29:04;;;;;;;4.63;2.92;;;9.70;99.90;;;;;;5092335;28;20032;-61
2023/01/11 01:31:30;;;;;;;3.50;2.78;;;9.80;99.90;;;;;;5092763;28;20065;-61
2023/01/11 01:33:56;;;;;;;3.20;2.90;;;9.80;99.90;;;;;;5092463;28;20032;-61
2023/01/11 01:36:21;;;;;;;3.58;3.20;;;10.10;99.90;;;;;;5092359;28;20486;-61
2023/01/11 01:38:47;;;;;;;5.32;3.35;;;9.80;99.90;;;;;;5092299;28;20044;-61
2023/01/11 01:41:13;;;;;;;4.15;2.72;;;10.10;99.90;;;;;;5092221;28;20047;-61
2023/01/11 01:43:50;;;;;;;3.55;2.85;;;10.20;99.90;;;;;;5092139;28;20040;-61
2023/01/11 01:46:17;;;;;;;3.00;2.70;;;10.30;99.90;;;;;;5092173;28;20040;-61
2023/01/11 01:48:47;;;;;;;3.38;2.90;;;10.30;99.90;;;;;;5092252;28;20032;-61
2023/01/11 01:51:18;;;;;;;3.08;2.78;;;10.30;99.90;;;;;;5092131;28;20032;-61
2023/01/11 01:53:47;;;;;;;3.22;2.45;;;10.30;99.90;;;;;;5090233;28;20041;-61
2023/01/11 01:56:18;;;;;;;2.80;2.60;;;10.20;99.90;;;;;;5090785;28;20040;-61
2023/01/11 01:58:49;;;;;;;2.08;1.98;;;10.10;99.90;;;;;;5092183;28;20036;-61
2023/01/11 02:04:05;;;;;;;3.38;2.50;;;10.40;99.90;;;;;;5090456;28;20048;-61
2023/01/11 02:06:31;;;;;;;2.65;2.28;;;10.40;99.90;;;;;;5091755;28;20044;-60
2023/01/11 02:09:06;;;;;;;3.40;1.83;;;10.20;99.90;;;;;;5091663;28;20100;-61
2023/01/11 02:11:33;;;;;;;2.65;1.88;;;10.50;99.90;;;;;;5092349;28;20032;-61
2023/01/11 02:14:02;;;;;;;3.85;2.30;;;10.10;99.90;;;;;;5090866;28;20046;-61
2023/01/11 02:16:28;;;;;;;2.28;2.00;;;10.40;99.90;;;;;;5092058;28;20051;-61
2023/01/11 02:18:56;;;;;;;2.63;2.10;;;10.30;99.90;;;;;;5091924;28;20044;-61
2023/01/11 02:21:44;;;;;;;2.50;1.85;;;10.60;99.90;;;;;;5092948;28;20040;-61
2023/01/11 02:24:09;;;;;;;2.03;1.77;;;10.30;99.90;;;;;;5094423;28;20593;-60
2023/01/11 02:26:50;;;;;;;3.47;2.08;;;10.60;99.90;;;;;;5096112;28;20071;-61
2023/01/11 02:29:46;;;;;;;2.35;2.00;;;10.60;99.90;;;;;;5095848;28;20065;-60
2023/01/11 02:32:33;;;;;;;3.42;2.13;;;10.50;99.90;;;;;;5096244;28;20044;-61
2023/01/11 02:35:11;;;;;;;1.75;1.50;;;10.50;99.90;;;;;;5095866;28;20120;-61
2023/01/11 02:37:59;;;;;;;3.60;1.80;;;10.50;99.90;;;;;;5094429;28;20486;-61
2023/01/11 02:40:40;;;;;;;2.65;1.80;;;10.60;99.90;;;;;;5095547;28;20055;-61
2023/01/11 02:46:38;;;;;;;1.58;1.48;;;10.70;99.90;;;;;;5072868;28;20052;-60
2023/01/11 02:49:32;;;;;;;2.03;1.48;;;10.30;99.90;;;;;;5072936;28;20044;-61
2023/01/11 02:52:07;;;;;;;2.53;1.77;;;10.40;99.90;;;;;;5013202;28;20129;-61
2023/01/11 02:54:35;;;;;;;3.28;1.70;;;10.30;99.90;;;;;;5012055;28;20038;-61
2023/01/11 02:57:03;;;;;;;2.10;1.67;;;10.30;99.90;;;;;;5011453;28;20854;-61
2023/01/11 02:59:31;;;;;;;2.28;1.98;;;10.30;99.90;;;;;;5011711;28;20495;-60
2023/01/11 03:01:57;;;;;;;2.70;2.00;;;10.30;99.90;;;;;;5029783;28;20081;-60
2023/01/11 03:04:28;;;;;;;1.83;1.73;;;10.40;99.90;;;;;;5029716;28;20475;-62
2023/01/11 03:07:16;;;;;;;2.20;2.00;;;10.40;99.90;;;;;;5012750;28;20054;-60
2023/01/11 03:09:42;;;;;;;1.95;1.75;;;10.60;99.90;;;;;;5012863;28;20042;-60
2023/01/11 03:15:45;;;;;;;1.60;1.50;;;10.50;99.90;;;;;;5013015;28;20046;-61
2023/01/11 03:18:38;;;;;;;1.70;1.60;;;10.50;99.90;;;;;;5012770;28;20041;-60
2023/01/11 03:21:20;;;;;;;1.60;1.50;;;10.80;99.90;;;;;;5012609;28;20062;-61
2023/01/11 03:24:24;;;;;;;1.25;1.15;;;10.70;99.90;;;;;;5027246;28;20088;-60
2023/01/11 03:26:55;;;;;;;1.63;1.30;;;10.50;99.90;;;;;;5032202;28;20038;-60
2023/01/11 03:29:36;;;;;;;1.90;1.23;;;10.70;99.90;;;;;;5088532;28;20178;-61
2023/01/11 03:32:23;;;;;;;1.85;1.30;;;10.70;99.90;;;;;;5094803;28;20041;-61
2023/01/11 03:35:07;;;;;;;1.55;1.42;;;10.60;99.90;;;;;;5094208;28;20089;-60
2023/01/11 03:38:05;;;;;;;1.83;1.58;;;10.50;99.90;;;;;;5094692;28;20047;-61
2023/01/11 03:40:47;;;;;;;2.70;2.00;;;10.50;99.90;;;;;;5094415;28;20079;-60
2023/01/11 03:43:16;;;;;;;5.18;2.30;;;10.80;99.90;;;;;;5094549;28;20067;-60
2023/01/11 03:45:53;;;;;;;4.10;2.22;;;10.50;99.90;;;;;;5094499;28;20592;-60
2023/01/11 03:48:28;;;;;;;5.90;2.40;;;10.80;99.90;;;;;;5094321;28;20115;-60
2023/01/11 03:50:55;;;;;;;5.53;2.70;;;10.90;99.90;;;;;;5094282;28;20067;-61
2023/01/11 03:53:24;;;;;;;7.63;3.20;;;10.60;99.90;;;;;;5093140;28;20040;-61
2023/01/11 03:55:54;;;;;;;5.85;2.80;;;10.70;99.90;;;;;;5094412;28;20040;-60
2023/01/11 03:58:20;;;;;;;9.45;3.40;;;10.90;99.90;;;;;;5094220;28;20036;-60
2023/01/11 04:00:47;;;;;;;10.60;3.20;;;10.60;99.90;;;;;;5094346;28;20066;-60
2023/01/11 04:03:13;;;;;;;12.20;3.10;;;11.00;99.90;;;;;;5094181;28;20052;-61
2023/01/11 04:05:43;;;;;;;14.70;3.53;;;10.80;99.90;;;;;;5094374;28;20463;-60
2023/01/11 04:08:10;;;;;;;12.75;3.38;;;10.80;99.90;;;;;;5093863;28;20084;-60
2023/01/11 04:10:36;;;;;;;9.00;3.00;;;11.20;99.90;;;;;;5093835;28;20050;-61
2023/01/11 04:13:03;;;;;;;11.80;3.75;;;11.20;99.90;;;;;;5093904;28;20072;-61
2023/01/11 04:15:33;;;;;;;13.60;3.92;;;11.00;99.90;;;;;;5093848;28;20116;-61
2023/01/11 04:18:03;;;;;;;12.73;3.42;;;10.80;99.90;;;;;;5093657;28;20431;-60
2023/01/11 04:20:39;;;;;;;14.85;4.07;;;10.80;99.90;;;;;;5093866;28;20099;-59
2023/01/11 04:23:07;;;;;;;17.42;3.58;;;10.80;99.90;;;;;;5092512;28;20072;-60
2023/01/11 04:25:32;;;;;;;15.32;3.78;;;11.10;99.90;;;;;;5093489;28;20547;-61
2023/01/11 04:27:58;;;;;;;18.92;3.88;;;10.90;99.90;;;;;;5093544;28;20068;-60
2023/01/11 04:30:24;;;;;;;15.70;3.63;;;10.80;99.90;;;;;;5092794;28;20122;-60
2023/01/11 04:32:50;;;;;;;10.90;2.08;;;10.80;99.90;;;;;;5093296;28;20576;-60
2023/01/11 04:35:16;;;;;;;6.07;1.70;;;10.50;99.90;;;;;;5093643;28;20040;-61
2023/01/11 04:37:42;;;;;;;8.45;1.75;;;10.50;99.90;;;;;;5091826;28;20044;-61
2023/01/11 04:40:08;;;;;;;5.38;1.45;;;10.10;99.90;;;;;;5093494;28;20044;-60
2023/01/11 04:42:34;;;;;;;5.47;1.60;;;10.20;99.90;;;;;;5093357;28;20114;-60
2023/01/11 04:44:59;;;;;;;10.05;1.50;;;10.00;99.90;;;;;;5091994;28;20130;-60
2023/01/11 04:47:25;;;;;;;8.95;1.52;;;10.00;99.90;;;;;;5093031;28;20046;-60
2023/01/11 04:49:51;;;;;;;8.00;1.52;;;10.10;99.90;;;;;;5093361;28;20028;-60
2023/01/11 04:52:18;;;;;;;5.00;1.67;;;10.20;99.90;;;;;;5093126;28;20040;-60
2023/01/11 04:54:44;;;;;;;8.18;1.88;;;10.10;99.90;;;;;;5093071;28;20032;-60
2023/01/11 04:57:13;;;;;;;10.82;2.25;;;10.00;99.90;;;;;;5093022;28;20540;-60
2023/01/11 04:59:39;;;;;;;8.20;1.35;;;10.10;99.90;;;;;;5092907;28;20076;-60
2023/01/11 05:02:05;;;;;;;7.80;1.45;;;10.00;99.90;;;;;;5092817;28;20071;-61
2023/01/11 05:04:30;;;;;;;10.30;2.70;;;10.00;99.90;;;;;;5092823;28;20043;-61
2023/01/11 05:06:56;;;;;;;9.13;1.55;;;10.00;99.90;;;;;;5092726;28;20117;-60
2023/01/11 05:09:22;;;;;;;9.13;1.80;;;10.10;99.90;;;;;;5092959;28;20549;-61
2023/01/11 05:11:48;;;;;;;7.90;1.50;;;10.10;99.90;;;;;;5093010;28;20044;-61
2023/01/11 05:14:15;;;;;;;8.65;1.60;;;9.90;99.90;;;;;;5092551;28;20036;-60
2023/01/11 05:16:41;;;;;;;8.38;1.35;;;9.90;99.90;;;;;;5091703;28;20044;-60
2023/01/11 05:19:08;;;;;;;16.08;2.38;;;10.00;99.90;;;;;;5092921;28;20117;-60
2023/01/11 05:21:38;;;;;;;16.10;2.50;;;10.10;99.90;;;;;;5092527;28;20516;-61
2023/01/11 05:24:04;;;;;;;;;;;10.20;99.90;;;;;;5093090;28;20055;-60
2023/01/11 05:26:32;;;;;;;13.57;3.00;;;10.20;99.90;;;;;;5092533;28;19924;-60
2023/01/11 05:29:01;;;;;;;15.82;2.30;;;10.10;99.90;;;;;;5092495;28;20050;-61
2023/01/11 05:31:27;;;;;;;17.02;3.45;;;10.20;99.90;;;;;;5092581;28;20040;-61
2023/01/11 05:33:56;;;;;;;14.70;2.35;;;10.10;99.90;;;;;;5092292;28;20028;-60
2023/01/11 05:36:24;;;;;;;12.98;3.08;;;10.20;99.90;;;;;;5092418;28;20075;-61
2023/01/11 05:38:50;;;;;;;15.90;3.20;;;10.30;99.90;;;;;;5092338;28;20047;-61
2023/01/11 05:41:17;;;;;;;17.85;2.67;;;10.10;99.90;;;;;;5091678;28;20081;-61
2023/01/11 05:46:30;;;;;;;17.67;2.75;;;10.20;99.90;;;;;;5092131;28;20044;-61
2023/01/11 05:48:57;;;;;;;14.07;2.40;;;10.10;99.90;;;;;;5092158;28;20043;-60
2023/01/11 05:51:29;;;;;;;18.02;3.47;;;10.20;99.90;;;;;;5092152;28;20028;-61
2023/01/11 05:53:55;;;;;;;13.52;3.30;;;10.00;99.90;;;;;;5091610;28;20035;-61
2023/01/11 05:56:24;;;;;;;23.70;3.67;;;10.30;99.90;;;;;;5091471;28;20118;-60
2023/01/11 05:58:50;;;;;;;22.73;3.85;;;10.10;99.90;;;;;;5092067;28;20063;-61
2023/01/11 06:01:17;;;;;;;17.70;3.63;;;9.90;99.90;;;;;;5091986;28;20482;-61
2023/01/11 06:03:43;;;;;;;25.08;3.72;;;10.10;99.90;;;;;;5091883;28;20065;-61
2023/01/11 06:06:08;;;;;;;21.27;3.50;;;10.10;99.90;;;;;;5091674;28;20047;-61
2023/01/11 06:08:35;;;;;;;21.90;3.63;;;10.10;99.90;;;;;;5090312;28;20125;-60
2023/01/11 06:11:01;;;;;;;25.88;3.70;;;10.10;99.90;;;;;;5092027;28;20067;-61
2023/01/11 06:13:26;;;;;;;13.00;3.20;;;10.10;99.90;;;;;;5091960;28;20040;-61
2023/01/11 06:16:00;;;;;;;17.08;3.53;;;9.90;99.90;;;;;;5091981;28;20439;-61
2023/01/11 06:18:28;;;;;;;21.77;3.92;;;9.90;99.90;;;;;;5091794;28;20040;-61
2023/01/11 06:20:55;;;;;;;25.75;3.75;;;9.90;99.90;;;;;;5091683;28;20490;-61
2023/01/11 06:23:21;;;;;;;15.88;3.38;;;9.90;99.90;;;;;;5091649;28;20050;-61
2023/01/11 06:25:47;;;;;;;24.17;3.58;;;9.90;99.90;;;;;;5091355;28;20036;-61
2023/01/11 06:28:13;;;;;;;18.23;3.20;;;9.90;99.90;;;;;;5091833;28;20055;-61
2023/01/11 06:30:39;;;;;;;23.38;3.53;;;9.80;99.90;;;;;;5091645;28;20036;-61
2023/01/11 06:33:05;;;;;;;23.38;4.88;;;9.80;99.90;;;;;;5091653;28;20032;-60
2023/01/11 06:35:33;;;;;;;26.50;3.38;;;9.70;99.90;;;;;;5091405;28;20085;-61
2023/01/11 06:37:59;;;;;;;19.85;3.88;;;9.70;99.90;;;;;;5091843;28;20070;-61
2023/01/11 06:40:24;;;;;;;23.55;3.72;;;9.80;99.90;;;;;;5091623;28;20063;-61
2023/01/11 06:42:50;;;;;;;22.98;4.78;;;9.70;99.90;;;;;;5091710;28;20040;-60
2023/01/11 06:45:16;;;;;;;32.30;4.75;;;9.60;99.90;;;;;;5091668;28;20093;-60
2023/01/11 06:47:41;;;;;;;24.67;4.35;;;9.80;99.90;;;;;;5091601;28;20039;-61
2023/01/11 06:50:08;;;;;;;23.90;3.72;;;9.90;99.90;;;;;;5091638;28;20032;-60
2023/01/11 06:52:33;;;;;;;28.42;4.22;;;9.70;99.90;;;;;;5091277;28;20478;-61
2023/01/11 06:54:59;;;;;;;23.15;3.85;;;9.80;99.90;;;;;;5091568;28;20169;-61
2023/01/11 06:57:25;;;;;;;31.52;4.50;;;9.80;99.90;;;;;;5091513;28;20036;-60
2023/01/11 06:59:50;;;;;;;22.92;4.13;;;9.90;99.90;;;;;;5091538;28;20493;-61
2023/01/11 07:02:16;;;;;;;21.85;3.58;;;9.80;99.90;;;;;;5091294;28;20123;-60
2023/01/11 07:04:41;;;;;;;16.10;3.20;;;9.80;99.90;;;;;;5090930;28;20492;-60
2023/01/11 07:07:07;;;;;;;14.65;2.88;;;9.80;99.90;;;;;;5091207;28;20044;-61
2023/01/11 07:09:33;;;;;;;17.05;2.33;;;9.70;99.90;;;;;;5094353;28;20505;-60
2023/01/11 07:11:58;;;;;;;19.92;3.55;;;9.80;99.90;;;;;;5095109;28;20047;-61
2023/01/11 07:14:24;;;;;;;13.07;2.30;;;9.70;99.90;;;;;;5094880;28;20359;-61
2023/01/11 07:16:49;;;;;;;21.80;4.22;;;9.80;99.90;;;;;;5094953;28;20036;-61
2023/01/11 07:19:16;;;;;;;24.70;3.58;;;9.80;99.90;;;;;;5094878;28;20044;-61
2023/01/11 07:21:43;;;;;;;14.40;2.65;;;9.70;99.90;;;;;;5093560;28;20107;-60
2023/01/11 07:24:08;;;;;;;17.92;2.40;;;9.60;99.90;;;;;;5094396;28;20509;-61
2023/01/11 07:26:39;;;;;;;17.38;3.45;;;9.70;99.90;;;;;;5092688;28;20032;-61
2023/01/11 07:29:06;;;;;;;16.27;3.08;;;9.70;99.90;;;;;;5092555;28;20048;-60
2023/01/11 07:31:31;;;;;;;16.20;3.28;;;9.60;99.90;;;;;;5094519;28;20107;-60
2023/01/11 07:33:57;;;;;;;16.75;3.38;;;9.70;99.90;;;;;;5094519;28;20040;-61
2023/01/11 07:36:23;;;;;;;13.38;2.78;;;9.70;99.90;;;;;;5094666;28;20414;-61
2023/01/11 07:38:48;;;;;;;18.27;2.72;;;9.60;99.90;;;;;;5094799;28;20091;-61
2023/01/11 07:43:58;;;;;;;21.27;3.38;;;9.60;99.90;;;;;;5092686;28;20048;-60
2023/01/11 07:46:24;;;;;;;17.85;2.30;;;9.70;99.90;;;;;;5094027;28;20121;-61
2023/01/11 07:48:50;;;;;;;16.25;2.88;;;9.60;99.90;;;;;;5094344;28;20040;-60
2023/01/11 07:51:19;;;;;;;18.10;2.90;;;9.60;99.90;;;;;;5094539;28;20072;-61
2023/01/11 07:53:45;;;;;;;13.25;3.47;;;9.60;99.90;;;;;;5094277;28;20036;-60
2023/01/11 07:56:11;;;;;;;12.77;2.38;;;9.40;99.90;;;;;;5093991;28;20066;-60
2023/01/11 07:58:37;;;;;;;16.08;2.72;;;9.50;99.90;;;;;;5094195;28;20040;-61
2023/01/11 08:01:04;;;;;;;13.27;2.40;;;9.60;99.90;;;;;;5075835;28;20406;-61
2023/01/11 08:03:29;;;;;;;13.43;2.42;;;9.40;99.90;;;;;;5094230;28;20051;-61
2023/01/11 08:05:55;;;;;;;15.85;3.60;;;9.50;99.90;;;;;;5094290;28;20032;-60
2023/01/11 08:08:21;;;;;;;20.10;3.20;;;9.50;99.90;;;;;;5094001;28;20044;-61
2023/01/11 08:14:37;;;;;;;18.30;2.72;;;9.60;99.90;;;;;;5093849;28;20044;-60
2023/01/11 08:16:16;;;;;;;15.18;2.78;;;9.50;99.90;;;;;;5094013;28;20531;-61
2023/01/11 08:18:42;;;;;;;12.95;2.97;;;9.50;99.90;;;;;;5093703;28;20048;-61
2023/01/11 08:21:08;;;;;;;14.45;2.53;;;9.60;99.90;;;;;;5094025;28;20093;-60
2023/01/11 08:23:34;;;;;;;15.35;2.50;;;9.60;99.90;;;;;;5093679;28;20070;-60
2023/01/11 08:26:00;;;;;;;15.25;2.67;;;9.50;99.90;;;;;;5093515;28;20044;-60
2023/01/11 08:28:25;;;;;;;11.70;2.80;;;9.50;99.90;;;;;;5093676;28;20036;-60
2023/01/11 08:30:51;;;;;;;15.30;2.38;;;9.50;99.90;;;;;;5093710;28;20059;-61
2023/01/11 08:33:17;;;;;;;17.33;3.05;;;9.40;99.90;;;;;;5093561;28;20555;-60
2023/01/11 08:35:43;;;;;;;10.60;2.47;;;9.40;99.90;;;;;;5093470;28;20075;-60
2023/01/11 08:38:08;;;;;;;12.65;2.42;;;9.50;99.90;;;;;;5093359;28;20075;-60
2023/01/11 08:40:35;;;;;;;15.57;2.70;;;9.40;99.90;;;;;;5093281;28;20032;-60
2023/01/11 08:43:01;;;;;;;16.35;2.88;;;9.50;99.90;;;;;;5093509;28;20097;-60
2023/01/11 08:45:26;;;;;;;15.05;3.15;;;9.40;99.90;;;;;;5093251;28;20044;-60
2023/01/11 08:47:53;;;;;;;13.80;2.90;;;9.50;99.90;;;;;;5093269;28;20032;-61
2023/01/11 08:50:20;;;;;;;14.43;3.13;;;9.40;99.90;;;;;;5093034;28;20486;-60
2023/01/11 08:52:45;;;;;;;13.18;3.00;;;9.40;99.90;;;;;;5092094;28;20126;-61
2023/01/11 08:55:11;;;;;;;13.13;1.80;;;9.40;99.90;;;;;;5092984;28;20115;-60
2023/01/11 08:57:36;;;;;;;12.98;2.13;;;9.30;99.90;;;;;;5093270;28;20485;-60
2023/01/11 09:00:07;;;;;;;12.55;2.58;;;9.20;99.90;;;;;;5093014;28;20542;-60
2023/01/11 09:02:33;;;;;;;14.00;2.22;;;9.20;99.90;;;;;;5092892;28;20043;-60
2023/01/11 09:04:58;;;;;;;13.90;2.45;;;9.20;99.90;;;;;;5093041;28;20035;-60
2023/01/11 09:07:24;;;;;;;13.82;2.42;;;9.20;99.90;;;;;;5092558;28;20478;-60
2023/01/11 09:09:50;;;;;;;13.45;3.28;;;9.10;99.90;;;;;;5092705;28;20069;-60
2023/01/11 09:12:17;;;;;;;16.38;4.30;;;9.30;99.90;;;;;;5092901;28;20044;-60
2023/01/11 09:14:42;;;;;;;17.98;3.17;;;9.20;99.90;;;;;;5093033;28;20032;-60
2023/01/11 09:17:08;;;;;;;13.23;2.20;;;9.30;99.90;;;;;;5092903;28;20494;-61
2023/01/11 09:19:34;;;;;;;20.77;2.60;;;9.40;99.90;;;;;;5092671;28;20413;-61
2023/01/11 09:22:01;;;;;;;14.23;2.50;;;9.30;99.90;;;;;;5092557;28;20071;-60
2023/01/11 09:24:28;;;;;;;13.68;3.28;;;9.30;99.90;;;;;;5092505;28;20043;-60
2023/01/11 09:26:57;;;;;;;13.63;2.28;;;9.30;99.90;;;;;;5092669;28;20040;-61
2023/01/11 09:29:22;;;;;;;15.52;2.03;;;9.20;99.90;;;;;;5092778;28;20040;-60
2023/01/11 09:31:48;;;;;;;11.57;2.28;;;9.20;99.90;;;;;;5091831;28;20081;-61
2023/01/11 09:34:14;;;;;;;20.20;2.70;;;9.20;99.90;;;;;;5092389;28;20078;-60
2023/01/11 09:36:41;;;;;;;9.23;2.50;;;9.20;99.90;;;;;;5092296;28;20031;-60
2023/01/11 09:39:11;;;;;;;15.75;3.38;;;9.40;99.90;;;;;;5092261;28;20059;-60
2023/01/11 09:41:52;;;;;;;18.17;4.25;;;9.20;99.90;;;;;;5092281;28;20402;-60
2023/01/11 09:44:24;;;;;;;13.60;3.10;;;9.30;99.90;;;;;;5090609;28;20056;-60
2023/01/11 09:46:55;;;;;;;13.80;2.50;;;9.30;99.90;;;;;;5092121;28;20128;-60
2023/01/11 09:49:26;;;;;;;14.75;2.55;;;9.40;99.90;;;;;;5092306;28;20478;-60
2023/01/11 09:52:00;;;;;;;11.65;2.00;;;9.40;99.90;;;;;;5090941;28;20044;-60
2023/01/11 09:54:26;;;;;;;11.55;2.25;;;9.40;99.90;;;;;;5092213;28;20050;-60
2023/01/11 09:57:09;;;;;;;11.23;1.70;;;9.40;99.90;;;;;;5092150;28;20401;-60
2023/01/11 09:59:55;;;;;;;13.25;2.45;;;9.40;99.90;;;;;;5091924;28;20486;-60
2023/01/11 10:02:40;;;;;;;12.27;2.53;;;9.50;99.90;;;;;;5090791;28;20048;-60
2023/01/11 10:05:41;;;;;;;12.05;2.28;;;9.60;99.90;;;;;;5092211;28;20044;-60
2023/01/11 10:08:20;;;;;;;7.93;1.83;;;9.80;99.90;;;;;;5091704;28;20059;-61
2023/01/11 10:10:56;;;;;;;13.43;2.37;;;9.80;99.90;;;;;;5092003;28;20071;-59
2023/01/11 10:13:39;;;;;;;12.45;3.05;;;9.90;99.90;;;;;;5091863;28;20036;-60
2023/01/11 10:16:34;;;;;;;12.65;3.10;;;10.00;99.90;;;;;;5073757;28;20048;-60
2023/01/11 10:19:37;;;;;;;13.75;2.33;;;10.00;99.90;;;;;;5091910;28;20115;-60
2023/01/11 10:22:11;;;;;;;12.82;2.22;;;10.10;99.90;;;;;;5091681;28;20044;-60
2023/01/11 10:24:47;;;;;;;13.60;1.80;;;10.20;99.90;;;;;;5090814;28;20044;-60
2023/01/11 10:27:35;;;;;;;13.25;2.70;;;10.10;99.90;;;;;;5091900;28;20091;-60
2023/01/11 10:30:31;;;;;;;14.95;2.95;;;10.20;99.90;;;;;;5091793;28;20032;-60
2023/01/11 10:42:02;;;;;;;14.07;2.25;;;10.20;99.90;;;;;;5069249;28;20394;-60
2023/01/11 10:44:40;;;;;;;10.07;2.38;;;10.20;99.90;;;;;;5073161;28;20044;-60
2023/01/11 10:47:15;;;;;;;13.25;2.28;;;10.20;99.90;;;;;;5073281;28;20424;-60
2023/01/11 10:50:01;;;;;;;9.77;1.67;;;10.20;99.90;;;;;;5056392;28;20075;-60
2023/01/11 10:52:39;;;;;;;15.80;2.22;;;10.20;99.90;;;;;;5072913;28;20037;-61
2023/01/11 10:55:23;;;;;;;8.98;2.42;;;10.20;99.90;;;;;;5072864;28;20398;-60
2023/01/11 10:58:11;;;;;;;11.27;2.33;;;10.20;99.90;;;;;;5072896;28;20040;-60
2023/01/11 11:01:09;;;;;;;12.50;2.30;;;10.10;99.90;;;;;;5072868;28;20364;-60
2023/01/11 11:03:48;;;;;;;13.10;1.95;;;10.20;99.90;;;;;;5072793;28;20422;-60
2023/01/11 11:06:42;;;;;;;8.40;2.13;;;10.20;99.90;;;;;;5072611;28;20480;-60
2023/01/11 11:09:36;;;;;;;15.70;2.88;;;10.20;99.90;;;;;;4996388;28;20136;-60
2023/01/11 11:12:15;;;;;;;16.63;2.13;;;10.20;99.90;;;;;;4999171;28;20050;-60
2023/01/11 11:14:51;;;;;;;15.55;3.00;;;10.20;99.90;;;;;;5032510;28;20578;-60
2023/01/11 11:17:24;;;;;;;16.38;2.80;;;10.30;99.90;;;;;;5032528;28;20096;-60
2023/01/11 11:19:51;;;;;;;15.68;3.70;;;10.20;99.90;;;;;;5032486;28;20209;-60
2023/01/11 11:22:18;;;;;;;11.93;2.25;;;10.30;99.90;;;;;;5016233;28;20052;-60
2023/01/11 11:24:58;;;;;;;11.38;3.38;;;10.30;99.90;;;;;;5032420;28;20064;-60
2023/01/11 11:27:29;;;;;;;12.90;2.20;;;10.40;99.90;;;;;;5032362;28;20454;-60
2023/01/11 11:29:56;;;;;;;15.65;3.40;;;10.40;99.90;;;;;;5032341;28;20091;-60
2023/01/11 11:32:35;;;;;;;17.27;3.40;;;10.40;99.90;;;;;;5032358;28;20050;-60
2023/01/11 11:35:01;;;;;;;18.20;3.38;;;10.50;99.90;;;;;;5032358;28;20436;-60
2023/01/11 11:37:41;;;;;;;16.52;3.50;;;10.40;99.90;;;;;;5032212;28;20056;-60
2023/01/11 11:40:28;;;;;;;19.02;3.65;;;10.40;99.90;;;;;;5032117;28;20500;-60
2023/01/11 11:43:09;;;;;;;13.38;3.15;;;10.40;99.90;;;;;;5032146;28;20046;-60
2023/01/11 11:45:35;;;;;;;18.00;3.90;;;10.50;99.90;;;;;;5055966;28;20097;-61
2023/01/11 11:48:09;;;;;;;20.38;3.50;;;10.50;99.90;;;;;;5094551;28;20435;-60
2023/01/11 11:50:36;;;;;;;14.90;3.22;;;10.50;99.90;;;;;;5094351;28;20469;-61
2023/01/11 11:53:03;;;;;;;15.43;3.47;;;10.40;99.90;;;;;;5094196;28;20111;-61
2023/01/11 11:55:34;;;;;;;19.48;3.65;;;10.50;99.90;;;;;;5093257;28;20079;-60
2023/01/11 11:58:07;;;;;;;18.58;2.90;;;10.50;99.90;;;;;;5093845;28;20508;-60
2023/01/11 12:00:50;;;;;;;20.17;3.50;;;10.50;99.90;;;;;;5094104;28;20062;-62
2023/01/11 12:03:20;;;;;;;23.80;3.45;;;10.60;99.90;;;;;;5092852;28;20394;-61
2023/01/11 12:05:56;;;;;;;20.75;4.55;;;10.60;99.90;;;;;;5094005;28;20140;-60
2023/01/11 12:08:23;;;;;;;17.35;2.90;;;10.60;99.90;;;;;;5093971;28;20086;-61
2023/01/11 12:10:57;;;;;;;17.73;3.13;;;10.70;99.90;;;;;;5093965;28;20044;-60
2023/01/11 12:13:29;;;;;;;17.52;3.97;;;10.60;99.90;;;;;;5093889;28;20036;-60
2023/01/11 12:15:58;;;;;;;27.05;3.50;;;10.70;99.90;;;;;;5093936;28;20044;-60
2023/01/11 12:18:30;;;;;;;17.30;3.10;;;10.60;99.90;;;;;;5093890;28;20032;-60
2023/01/11 12:20:55;;;;;;;18.83;3.83;;;10.60;99.90;;;;;;5093925;28;20123;-60
2023/01/11 12:23:25;;;;;;;19.38;3.22;;;10.50;99.90;;;;;;5093937;28;20167;-61
2023/01/11 12:25:59;;;;;;;22.75;4.20;;;10.50;99.90;;;;;;5091978;28;20466;-61
2023/01/11 12:28:54;;;;;;;15.00;3.60;;;10.50;99.90;;;;;;5093808;28;20039;-61
2023/01/11 12:31:53;;;;;;;18.23;3.15;;;10.40;99.90;;;;;;5093420;28;20105;-60
2023/01/11 12:34:31;;;;;;;19.50;3.30;;;10.40;99.90;;;;;;5092384;28;20123;-61
2023/01/11 12:37:27;;;;;;;21.45;3.22;;;10.30;99.90;;;;;;5093471;28;20086;-61
2023/01/11 12:40:30;;;;;;;30.80;4.85;;;10.30;99.90;;;;;;5093341;28;20105;-61
2023/01/11 12:43:14;;;;;;;19.13;3.40;;;10.30;99.90;;;;;;5093956;28;20081;-61
2023/01/11 12:46:14;;;;;;;17.50;3.15;;;10.20;99.90;;;;;;5093253;28;20044;-61
2023/01/11 12:48:40;;;;;;;20.63;3.47;;;10.20;99.90;;;;;;5093241;28;20428;-60
2023/01/11 12:51:26;;;;;;;21.20;3.40;;;10.30;99.90;;;;;;5093308;28;20036;-61
2023/01/11 12:54:24;;;;;;;18.13;3.17;;;10.20;99.90;;;;;;5093184;28;20059;-61
2023/01/11 12:57:29;;;;;;;19.88;3.50;;;10.20;99.90;;;;;;5093009;28;20073;-61
2023/01/11 13:00:25;;;;;;;24.05;3.35;;;10.20;99.90;;;;;;5092907;28;20068;-61
2023/01/11 13:03:18;;;;;;;19.70;3.35;;;10.20;99.90;;;;;;5092744;28;20040;-61
2023/01/11 13:06:14;;;;;;;21.35;3.75;;;10.20;99.90;;;;;;5092174;28;20371;-61
2023/01/11 13:08:58;;;;;;;21.00;3.70;;;10.20;99.90;;;;;;5092551;28;20375;-61
2023/01/11 13:11:44;;;;;;;20.30;3.80;;;10.20;99.90;;;;;;5092694;28;20482;-60
2023/01/11 13:14:31;;;;;;;24.05;4.03;;;10.30;99.90;;;;;;5092983;28;20051;-61
2023/01/11 13:17:10;;;;;;;20.20;3.95;;;10.20;99.90;;;;;;5092648;28;20040;-61
2023/01/11 13:19:46;;;;;;;19.75;3.85;;;10.20;99.90;;;;;;5092606;28;20050;-61
2023/01/11 13:22:19;;;;;;;16.30;3.45;;;10.10;99.90;;;;;;5092709;28;20177;-61
2023/01/11 13:24:48;;;;;;;32.28;5.30;;;10.10;99.90;;;;;;5092653;28;20052;-62
2023/01/11 13:27:16;;;;;;;;;;;10.10;99.90;;;;;;5092708;28;20036;-61
2023/01/11 13:29:46;;;;;;;17.50;3.25;;;10.10;99.90;;;;;;5092373;28;20400;-61
2023/01/11 13:32:24;;;;;;;29.67;4.78;;;10.10;99.90;;;;;;5092166;28;20047;-61
2023/01/11 13:35:06;;;;;;;19.75;3.83;;;10.00;99.90;;;;;;5092368;28;20044;-61
2023/01/11 13:37:54;;;;;;;21.88;3.65;;;10.10;99.90;;;;;;5092982;28;20040;-61
2023/01/11 13:40:37;;;;;;;27.13;3.95;;;10.20;99.90;;;;;;5092429;28;20096;-61
2023/01/11 13:43:10;;;;;;;21.50;4.47;;;10.00;99.90;;;;;;5092535;28;20048;-60